sensor_id;sensor_type;location;lat;lon;timestamp;temperature;humidity
52209;DHT22;38507;53.132;6.394;2023-05-13T00:00:05;11.60;99.90
52209;DHT22;38507;53.132;6.394;2023-05-13T00:02:30;11.60;99.90
52209;DHT22;38507;53.132;6.394;2023-05-13T00:04:56;11.60;99.90
52209;DHT22;38507;53.132;6.394;2023-05-13T00:07:22;11.50;99.90
52209;DHT22;38507;53.132;6.394;2023-05-13T00:09:48;11.80;99.90
52209;DHT22;38507;53.132;6.394;2023-05-13T00:12:13;11.70;99.90
52209;DHT22;38507;53.132;6.394;2023-05-13T00:14:39;11.50;99.90
52209;DHT22;38507;53.132;6.394;2023-05-13T00:17:05;11.60;99.90
52209;DHT22;38507;53.132;6.394;2023-05-13T00:19:30;11.40;99.90
52209;DHT22;38507;53.132;6.394;2023-05-13T00:21:56;11.40;99.90
52209;DHT22;38507;53.132;6.394;2023-05-13T00:24:22;11.40;99.90
52209;DHT22;38507;53.132;6.394;2023-05-13T00:26:47;11.40;99.90
52209;DHT22;38507;53.132;6.394;2023-05-13T00:29:13;11.40;99.90
52209;DHT22;38507;53.132;6.394;2023-05-13T00:31:39;11.30;99.90
52209;DHT22;38507;53.132;6.394;2023-05-13T00:34:05;11.40;99.90
52209;DHT22;38507;53.132;6.394;2023-05-13T00:36:31;11.30;99.90
52209;DHT22;38507;53.132;6.394;2023-05-13T00:38:56;11.30;99.90
52209;DHT22;38507;53.132;6.394;2023-05-13T00:41:22;11.40;99.90
52209;DHT22;38507;53.132;6.394;2023-05-13T00:43:48;11.20;99.90
52209;DHT22;38507;53.132;6.394;2023-05-13T00:46:14;11.20;99.90
52209;DHT22;38507;53.132;6.394;2023-05-13T00:48:40;11.20;99.90
52209;DHT22;38507;53.132;6.394;2023-05-13T00:51:06;11.10;99.90
52209;DHT22;38507;53.132;6.394;2023-05-13T00:53:32;11.50;99.90
52209;DHT22;38507;53.132;6.394;2023-05-13T00:55:58;11.30;99.90
52209;DHT22;38507;53.132;6.394;2023-05-13T00:58:24;11.10;99.90
52209;DHT22;38507;53.132;6.394;2023-05-13T01:01:14;11.10;99.90
52209;DHT22;38507;53.132;6.394;2023-05-13T01:03:44;11.10;99.90
52209;DHT22;38507;53.132;6.394;2023-05-13T01:06:15;11.10;99.90
52209;DHT22;38507;53.132;6.394;2023-05-13T01:11:36;11.10;99.90
52209;DHT22;38507;53.132;6.394;2023-05-13T01:14:11;11.10;99.90
52209;DHT22;38507;53.132;6.394;2023-05-13T01:19:25;11.10;99.90
52209;DHT22;38507;53.132;6.394;2023-05-13T01:21:54;11.10;99.90
52209;DHT22;38507;53.132;6.394;2023-05-13T01:24:20;11.20;99.90
52209;DHT22;38507;53.132;6.394;2023-05-13T01:26:45;11.00;99.90
52209;DHT22;38507;53.132;6.394;2023-05-13T01:29:12;11.00;99.90
52209;DHT22;38507;53.132;6.394;2023-05-13T01:31:39;11.00;99.90
52209;DHT22;38507;53.132;6.394;2023-05-13T01:34:05;11.00;99.90
52209;DHT22;38507;53.132;6.394;2023-05-13T01:36:31;11.00;99.90
52209;DHT22;38507;53.132;6.394;2023-05-13T01:38:57;11.00;99.90
52209;DHT22;38507;53.132;6.394;2023-05-13T01:41:24;11.00;99.90
52209;DHT22;38507;53.132;6.394;2023-05-13T01:43:50;11.00;99.90
52209;DHT22;38507;53.132;6.394;2023-05-13T01:46:17;11.00;99.90
52209;DHT22;38507;53.132;6.394;2023-05-13T01:48:42;11.30;99.90
52209;DHT22;38507;53.132;6.394;2023-05-13T01:51:08;10.90;99.90
52209;DHT22;38507;53.132;6.394;2023-05-13T01:53:34;10.90;99.90
52209;DHT22;38507;53.132;6.394;2023-05-13T01:55:59;10.90;99.90
52209;DHT22;38507;53.132;6.394;2023-05-13T01:58:25;10.90;99.90
52209;DHT22;38507;53.132;6.394;2023-05-13T02:00:50;11.00;99.90
52209;DHT22;38507;53.132;6.394;2023-05-13T02:03:16;10.80;99.90
52209;DHT22;38507;53.132;6.394;2023-05-13T02:05:42;10.80;99.90
52209;DHT22;38507;53.132;6.394;2023-05-13T02:08:07;10.90;99.90
52209;DHT22;38507;53.132;6.394;2023-05-13T02:10:33;10.80;99.90
52209;DHT22;38507;53.132;6.394;2023-05-13T02:12:59;11.00;99.90
52209;DHT22;38507;53.132;6.394;2023-05-13T02:15:24;10.70;99.90
52209;DHT22;38507;53.132;6.394;2023-05-13T02:17:50;10.70;99.90
52209;DHT22;38507;53.132;6.394;2023-05-13T02:20:15;11.00;99.90
52209;DHT22;38507;53.132;6.394;2023-05-13T02:22:41;10.70;99.90
52209;DHT22;38507;53.132;6.394;2023-05-13T02:25:07;10.80;99.90
52209;DHT22;38507;53.132;6.394;2023-05-13T02:27:33;10.70;99.90
52209;DHT22;38507;53.132;6.394;2023-05-13T02:29:58;10.70;99.90
52209;DHT22;38507;53.132;6.394;2023-05-13T02:32:24;10.70;99.90
52209;DHT22;38507;53.132;6.394;2023-05-13T02:34:50;10.70;99.90
52209;DHT22;38507;53.132;6.394;2023-05-13T02:37:15;11.00;99.90
52209;DHT22;38507;53.132;6.394;2023-05-13T02:39:41;10.70;99.90
52209;DHT22;38507;53.132;6.394;2023-05-13T02:42:07;10.70;99.90
52209;DHT22;38507;53.132;6.394;2023-05-13T02:44:32;10.60;99.90
52209;DHT22;38507;53.132;6.394;2023-05-13T02:46:58;10.70;99.90
52209;DHT22;38507;53.132;6.394;2023-05-13T02:49:24;10.60;99.90
52209;DHT22;38507;53.132;6.394;2023-05-13T02:51:49;11.00;99.90
52209;DHT22;38507;53.132;6.394;2023-05-13T02:54:15;10.50;99.90
52209;DHT22;38507;53.132;6.394;2023-05-13T02:56:40;10.70;99.90
52209;DHT22;38507;53.132;6.394;2023-05-13T02:59:06;10.50;99.90
52209;DHT22;38507;53.132;6.394;2023-05-13T03:01:32;10.50;99.90
52209;DHT22;38507;53.132;6.394;2023-05-13T03:03:57;10.50;99.90
52209;DHT22;38507;53.132;6.394;2023-05-13T03:06:23;10.50;99.90
52209;DHT22;38507;53.132;6.394;2023-05-13T03:08:49;10.40;99.90
52209;DHT22;38507;53.132;6.394;2023-05-13T03:11:14;10.90;99.90
52209;DHT22;38507;53.132;6.394;2023-05-13T03:13:40;10.70;99.90
52209;DHT22;38507;53.132;6.394;2023-05-13T03:16:05;10.40;99.90
52209;DHT22;38507;53.132;6.394;2023-05-13T03:18:31;10.40;99.90
52209;DHT22;38507;53.132;6.394;2023-05-13T03:20:57;10.40;99.90
52209;DHT22;38507;53.132;6.394;2023-05-13T03:23:22;10.40;99.90
52209;DHT22;38507;53.132;6.394;2023-05-13T03:25:48;10.40;99.90
52209;DHT22;38507;53.132;6.394;2023-05-13T03:28:14;10.40;99.90
52209;DHT22;38507;53.132;6.394;2023-05-13T03:30:39;10.40;99.90
52209;DHT22;38507;53.132;6.394;2023-05-13T03:33:05;10.40;99.90
52209;DHT22;38507;53.132;6.394;2023-05-13T03:35:31;10.30;99.90
52209;DHT22;38507;53.132;6.394;2023-05-13T03:37:56;10.30;99.90
52209;DHT22;38507;53.132;6.394;2023-05-13T03:40:22;10.40;99.90
52209;DHT22;38507;53.132;6.394;2023-05-13T03:42:48;10.30;99.90
52209;DHT22;38507;53.132;6.394;2023-05-13T03:45:13;10.30;99.90
52209;DHT22;38507;53.132;6.394;2023-05-13T03:47:39;10.30;99.90
52209;DHT22;38507;53.132;6.394;2023-05-13T03:50:05;10.30;99.90
52209;DHT22;38507;53.132;6.394;2023-05-13T03:52:31;10.30;99.90
52209;DHT22;38507;53.132;6.394;2023-05-13T03:54:56;10.30;99.90
52209;DHT22;38507;53.132;6.394;2023-05-13T03:57:22;10.30;99.90
52209;DHT22;38507;53.132;6.394;2023-05-13T03:59:48;10.50;99.90
52209;DHT22;38507;53.132;6.394;2023-05-13T04:02:13;10.30;99.90
52209;DHT22;38507;53.132;6.394;2023-05-13T04:04:39;10.80;99.90
52209;DHT22;38507;53.132;6.394;2023-05-13T04:07:04;10.50;99.90
52209;DHT22;38507;53.132;6.394;2023-05-13T04:09:30;10.40;99.90
52209;DHT22;38507;53.132;6.394;2023-05-13T04:11:56;10.60;99.90
52209;DHT22;38507;53.132;6.394;2023-05-13T04:14:21;10.40;99.90
52209;DHT22;38507;53.132;6.394;2023-05-13T04:16:47;10.40;99.90
52209;DHT22;38507;53.132;6.394;2023-05-13T04:19:13;10.40;99.90
52209;DHT22;38507;53.132;6.394;2023-05-13T04:21:38;10.40;99.90
52209;DHT22;38507;53.132;6.394;2023-05-13T04:24:04;10.50;99.90
52209;DHT22;38507;53.132;6.394;2023-05-13T04:26:31;10.50;99.90
52209;DHT22;38507;53.132;6.394;2023-05-13T04:28:56;10.50;99.90
52209;DHT22;38507;53.132;6.394;2023-05-13T04:31:22;10.60;99.90
52209;DHT22;38507;53.132;6.394;2023-05-13T04:33:47;10.80;99.90
52209;DHT22;38507;53.132;6.394;2023-05-13T04:36:13;10.60;99.90
52209;DHT22;38507;53.132;6.394;2023-05-13T04:38:39;10.90;99.90
52209;DHT22;38507;53.132;6.394;2023-05-13T04:41:04;10.90;99.90
52209;DHT22;38507;53.132;6.394;2023-05-13T04:43:30;10.80;99.90
52209;DHT22;38507;53.132;6.394;2023-05-13T04:45:56;10.90;99.90
52209;DHT22;38507;53.132;6.394;2023-05-13T04:48:22;11.20;99.90
52209;DHT22;38507;53.132;6.394;2023-05-13T04:50:49;11.00;99.90
52209;DHT22;38507;53.132;6.394;2023-05-13T04:53:15;11.00;99.90
52209;DHT22;38507;53.132;6.394;2023-05-13T04:55:41;11.10;99.90
52209;DHT22;38507;53.132;6.394;2023-05-13T04:58:06;11.30;99.90
52209;DHT22;38507;53.132;6.394;2023-05-13T05:00:32;11.20;99.90
52209;DHT22;38507;53.132;6.394;2023-05-13T05:02:58;11.20;99.90
52209;DHT22;38507;53.132;6.394;2023-05-13T05:05:23;11.30;99.90
52209;DHT22;38507;53.132;6.394;2023-05-13T05:07:49;11.40;99.90
52209;DHT22;38507;53.132;6.394;2023-05-13T05:10:15;11.30;99.90
52209;DHT22;38507;53.132;6.394;2023-05-13T05:12:41;11.40;99.90
52209;DHT22;38507;53.132;6.394;2023-05-13T05:15:07;11.50;99.90
52209;DHT22;38507;53.132;6.394;2023-05-13T05:17:41;11.50;99.90
52209;DHT22;38507;53.132;6.394;2023-05-13T05:20:07;11.60;99.90
52209;DHT22;38507;53.132;6.394;2023-05-13T05:22:33;11.70;99.90
52209;DHT22;38507;53.132;6.394;2023-05-13T05:25:00;11.70;99.90
52209;DHT22;38507;53.132;6.394;2023-05-13T05:27:26;11.80;99.90
52209;DHT22;38507;53.132;6.394;2023-05-13T05:29:51;11.90;99.90
52209;DHT22;38507;53.132;6.394;2023-05-13T05:32:17;11.90;99.90
52209;DHT22;38507;53.132;6.394;2023-05-13T05:34:43;12.00;99.90
52209;DHT22;38507;53.132;6.394;2023-05-13T05:37:09;12.10;99.90
52209;DHT22;38507;53.132;6.394;2023-05-13T05:39:34;12.20;99.90
52209;DHT22;38507;53.132;6.394;2023-05-13T05:42:00;12.30;99.90
52209;DHT22;38507;53.132;6.394;2023-05-13T05:44:26;12.30;99.90
52209;DHT22;38507;53.132;6.394;2023-05-13T05:46:51;12.40;99.90
52209;DHT22;38507;53.132;6.394;2023-05-13T05:49:18;12.50;99.90
52209;DHT22;38507;53.132;6.394;2023-05-13T05:51:44;12.60;99.90
52209;DHT22;38507;53.132;6.394;2023-05-13T05:54:10;12.70;99.90
52209;DHT22;38507;53.132;6.394;2023-05-13T05:56:36;12.80;99.90
52209;DHT22;38507;53.132;6.394;2023-05-13T05:59:01;12.90;99.90
52209;DHT22;38507;53.132;6.394;2023-05-13T06:01:28;13.00;99.90
52209;DHT22;38507;53.132;6.394;2023-05-13T06:03:58;13.00;99.90
52209;DHT22;38507;53.132;6.394;2023-05-13T06:06:24;13.20;99.90
52209;DHT22;38507;53.132;6.394;2023-05-13T06:08:49;13.20;99.90
52209;DHT22;38507;53.132;6.394;2023-05-13T06:11:16;13.30;99.90
52209;DHT22;38507;53.132;6.394;2023-05-13T06:13:41;13.50;99.90
52209;DHT22;38507;53.132;6.394;2023-05-13T06:16:08;13.50;99.90
52209;DHT22;38507;53.132;6.394;2023-05-13T06:18:34;13.50;99.90
52209;DHT22;38507;53.132;6.394;2023-05-13T06:20:59;13.60;99.90
52209;DHT22;38507;53.132;6.394;2023-05-13T06:23:25;13.80;99.90
52209;DHT22;38507;53.132;6.394;2023-05-13T06:25:50;13.80;99.90
52209;DHT22;38507;53.132;6.394;2023-05-13T06:28:16;13.90;99.90
52209;DHT22;38507;53.132;6.394;2023-05-13T06:30:43;14.00;99.90
52209;DHT22;38507;53.132;6.394;2023-05-13T06:33:09;14.10;99.90
52209;DHT22;38507;53.132;6.394;2023-05-13T06:35:38;14.10;99.90
52209;DHT22;38507;53.132;6.394;2023-05-13T06:38:03;14.20;99.90
52209;DHT22;38507;53.132;6.394;2023-05-13T06:40:29;14.40;99.90
52209;DHT22;38507;53.132;6.394;2023-05-13T06:42:55;14.30;99.90
52209;DHT22;38507;53.132;6.394;2023-05-13T06:45:20;14.50;99.90
52209;DHT22;38507;53.132;6.394;2023-05-13T06:47:51;14.60;99.90
52209;DHT22;38507;53.132;6.394;2023-05-13T06:50:17;14.80;99.90
52209;DHT22;38507;53.132;6.394;2023-05-13T06:52:43;14.90;99.90
52209;DHT22;38507;53.132;6.394;2023-05-13T06:55:09;15.10;99.90
52209;DHT22;38507;53.132;6.394;2023-05-13T06:57:35;15.20;99.90
52209;DHT22;38507;53.132;6.394;2023-05-13T07:00:02;15.30;99.90
52209;DHT22;38507;53.132;6.394;2023-05-13T07:02:28;15.60;99.90
52209;DHT22;38507;53.132;6.394;2023-05-13T07:04:54;15.70;99.90
52209;DHT22;38507;53.132;6.394;2023-05-13T07:07:20;15.80;99.90
52209;DHT22;38507;53.132;6.394;2023-05-13T07:09:45;16.00;99.90
52209;DHT22;38507;53.132;6.394;2023-05-13T07:12:11;16.10;99.90
52209;DHT22;38507;53.132;6.394;2023-05-13T07:14:37;16.20;99.90
52209;DHT22;38507;53.132;6.394;2023-05-13T07:17:02;16.40;99.90
52209;DHT22;38507;53.132;6.394;2023-05-13T07:19:28;16.40;99.90
52209;DHT22;38507;53.132;6.394;2023-05-13T07:21:54;16.60;99.90
52209;DHT22;38507;53.132;6.394;2023-05-13T07:24:20;16.60;99.90
52209;DHT22;38507;53.132;6.394;2023-05-13T07:26:46;16.90;99.90
52209;DHT22;38507;53.132;6.394;2023-05-13T07:29:12;16.90;99.90
52209;DHT22;38507;53.132;6.394;2023-05-13T07:31:38;17.10;99.90
52209;DHT22;38507;53.132;6.394;2023-05-13T07:34:04;17.20;99.90
52209;DHT22;38507;53.132;6.394;2023-05-13T07:36:30;17.40;99.90
52209;DHT22;38507;53.132;6.394;2023-05-13T07:38:56;17.50;99.90
52209;DHT22;38507;53.132;6.394;2023-05-13T07:41:21;17.70;99.90
52209;DHT22;38507;53.132;6.394;2023-05-13T07:43:47;17.80;99.90
52209;DHT22;38507;53.132;6.394;2023-05-13T07:46:13;18.20;99.90
52209;DHT22;38507;53.132;6.394;2023-05-13T07:48:38;18.40;99.90
52209;DHT22;38507;53.132;6.394;2023-05-13T07:51:04;18.50;99.90
52209;DHT22;38507;53.132;6.394;2023-05-13T07:53:30;18.80;99.90
52209;DHT22;38507;53.132;6.394;2023-05-13T07:55:55;19.10;99.90
52209;DHT22;38507;53.132;6.394;2023-05-13T07:58:21;19.30;99.90
52209;DHT22;38507;53.132;6.394;2023-05-13T08:00:47;19.40;99.90
52209;DHT22;38507;53.132;6.394;2023-05-13T08:03:14;19.50;99.90
52209;DHT22;38507;53.132;6.394;2023-05-13T08:05:41;19.70;99.90
52209;DHT22;38507;53.132;6.394;2023-05-13T08:08:06;19.80;99.90
52209;DHT22;38507;53.132;6.394;2023-05-13T08:10:32;20.00;99.90
52209;DHT22;38507;53.132;6.394;2023-05-13T08:12:58;20.20;99.90
52209;DHT22;38507;53.132;6.394;2023-05-13T08:15:25;20.40;99.90
52209;DHT22;38507;53.132;6.394;2023-05-13T08:17:52;20.70;99.90
52209;DHT22;38507;53.132;6.394;2023-05-13T08:20:19;20.90;99.90
52209;DHT22;38507;53.132;6.394;2023-05-13T08:22:45;21.00;99.90
52209;DHT22;38507;53.132;6.394;2023-05-13T08:25:12;21.00;99.90
52209;DHT22;38507;53.132;6.394;2023-05-13T08:27:37;21.10;99.90
52209;DHT22;38507;53.132;6.394;2023-05-13T08:30:04;21.20;99.90
52209;DHT22;38507;53.132;6.394;2023-05-13T08:32:30;21.40;99.90
52209;DHT22;38507;53.132;6.394;2023-05-13T08:34:56;21.50;99.90
52209;DHT22;38507;53.132;6.394;2023-05-13T08:37:22;21.50;99.90
52209;DHT22;38507;53.132;6.394;2023-05-13T08:39:47;21.50;99.90
52209;DHT22;38507;53.132;6.394;2023-05-13T08:42:14;21.70;99.90
52209;DHT22;38507;53.132;6.394;2023-05-13T08:44:43;22.00;99.90
52209;DHT22;38507;53.132;6.394;2023-05-13T08:50:01;22.10;99.90
52209;DHT22;38507;53.132;6.394;2023-05-13T08:52:27;22.30;99.90
52209;DHT22;38507;53.132;6.394;2023-05-13T08:54:53;22.40;99.90
52209;DHT22;38507;53.132;6.394;2023-05-13T08:57:20;22.50;99.90
52209;DHT22;38507;53.132;6.394;2023-05-13T08:59:46;22.70;99.90
52209;DHT22;38507;53.132;6.394;2023-05-13T09:02:11;22.70;99.90
52209;DHT22;38507;53.132;6.394;2023-05-13T09:04:38;22.70;99.90
52209;DHT22;38507;53.132;6.394;2023-05-13T09:07:06;22.70;99.90
52209;DHT22;38507;53.132;6.394;2023-05-13T09:09:35;22.90;99.90
52209;DHT22;38507;53.132;6.394;2023-05-13T09:12:00;23.00;99.90
52209;DHT22;38507;53.132;6.394;2023-05-13T09:14:29;23.10;99.90
52209;DHT22;38507;53.132;6.394;2023-05-13T09:16:56;23.30;99.90
52209;DHT22;38507;53.132;6.394;2023-05-13T09:19:24;23.40;99.90
52209;DHT22;38507;53.132;6.394;2023-05-13T09:21:52;23.50;99.90
52209;DHT22;38507;53.132;6.394;2023-05-13T09:24:18;23.40;99.90
52209;DHT22;38507;53.132;6.394;2023-05-13T09:26:46;23.60;99.90
52209;DHT22;38507;53.132;6.394;2023-05-13T09:29:17;23.80;99.90
52209;DHT22;38507;53.132;6.394;2023-05-13T09:31:44;23.80;99.90
52209;DHT22;38507;53.132;6.394;2023-05-13T09:34:10;23.80;99.90
52209;DHT22;38507;53.132;6.394;2023-05-13T09:36:35;23.70;99.90
52209;DHT22;38507;53.132;6.394;2023-05-13T09:39:02;23.80;99.90
52209;DHT22;38507;53.132;6.394;2023-05-13T09:41:30;23.80;99.90
52209;DHT22;38507;53.132;6.394;2023-05-13T09:44:02;24.00;99.90
52209;DHT22;38507;53.132;6.394;2023-05-13T09:46:31;24.00;99.90
52209;DHT22;38507;53.132;6.394;2023-05-13T09:48:58;24.10;99.90
52209;DHT22;38507;53.132;6.394;2023-05-13T09:51:26;24.30;99.90
52209;DHT22;38507;53.132;6.394;2023-05-13T09:53:53;24.30;99.90
52209;DHT22;38507;53.132;6.394;2023-05-13T09:56:21;24.50;99.90
52209;DHT22;38507;53.132;6.394;2023-05-13T09:58:51;24.50;99.90
52209;DHT22;38507;53.132;6.394;2023-05-13T10:01:18;24.50;99.90
52209;DHT22;38507;53.132;6.394;2023-05-13T10:03:45;24.60;99.90
52209;DHT22;38507;53.132;6.394;2023-05-13T10:06:10;24.60;99.90
52209;DHT22;38507;53.132;6.394;2023-05-13T10:08:37;24.70;99.90
52209;DHT22;38507;53.132;6.394;2023-05-13T10:11:05;24.80;99.90
52209;DHT22;38507;53.132;6.394;2023-05-13T10:13:31;24.90;99.90
52209;DHT22;38507;53.132;6.394;2023-05-13T10:15:58;24.90;99.90
52209;DHT22;38507;53.132;6.394;2023-05-13T10:18:23;24.90;99.90
52209;DHT22;38507;53.132;6.394;2023-05-13T10:20:50;24.80;99.90
52209;DHT22;38507;53.132;6.394;2023-05-13T10:23:21;24.90;99.90
52209;DHT22;38507;53.132;6.394;2023-05-13T10:25:49;24.90;99.90
52209;DHT22;38507;53.132;6.394;2023-05-13T10:28:15;25.00;99.90
52209;DHT22;38507;53.132;6.394;2023-05-13T10:30:41;25.00;99.90
52209;DHT22;38507;53.132;6.394;2023-05-13T10:33:08;25.20;99.90
52209;DHT22;38507;53.132;6.394;2023-05-13T10:35:37;25.10;99.90
52209;DHT22;38507;53.132;6.394;2023-05-13T10:38:34;25.20;99.90
52209;DHT22;38507;53.132;6.394;2023-05-13T10:41:23;25.30;99.90
52209;DHT22;38507;53.132;6.394;2023-05-13T10:43:58;25.40;99.90
52209;DHT22;38507;53.132;6.394;2023-05-13T10:46:26;25.40;99.90
52209;DHT22;38507;53.132;6.394;2023-05-13T10:48:58;25.40;99.90
52209;DHT22;38507;53.132;6.394;2023-05-13T10:51:24;25.40;99.90
52209;DHT22;38507;53.132;6.394;2023-05-13T10:53:52;25.40;99.90
52209;DHT22;38507;53.132;6.394;2023-05-13T10:56:19;25.50;99.90
52209;DHT22;38507;53.132;6.394;2023-05-13T11:01:37;25.40;98.80
52209;DHT22;38507;53.132;6.394;2023-05-13T11:04:14;25.50;99.90
52209;DHT22;38507;53.132;6.394;2023-05-13T11:06:45;25.80;99.90
52209;DHT22;38507;53.132;6.394;2023-05-13T11:09:13;25.70;99.70
52209;DHT22;38507;53.132;6.394;2023-05-13T11:11:39;25.90;99.80
52209;DHT22;38507;53.132;6.394;2023-05-13T11:14:15;25.90;99.70
52209;DHT22;38507;53.132;6.394;2023-05-13T11:19:44;25.90;99.10
52209;DHT22;38507;53.132;6.394;2023-05-13T11:22:19;26.00;99.60
52209;DHT22;38507;53.132;6.394;2023-05-13T11:25:05;26.00;99.20
52209;DHT22;38507;53.132;6.394;2023-05-13T11:27:40;26.00;98.20
52209;DHT22;38507;53.132;6.394;2023-05-13T11:30:07;26.10;98.90
52209;DHT22;38507;53.132;6.394;2023-05-13T11:32:56;26.10;99.20
52209;DHT22;38507;53.132;6.394;2023-05-13T11:35:32;26.20;98.90
52209;DHT22;38507;53.132;6.394;2023-05-13T11:38:00;26.20;98.30
52209;DHT22;38507;53.132;6.394;2023-05-13T11:40:33;26.20;99.10
52209;DHT22;38507;53.132;6.394;2023-05-13T11:43:00;26.30;99.50
52209;DHT22;38507;53.132;6.394;2023-05-13T11:45:27;26.30;98.80
52209;DHT22;38507;53.132;6.394;2023-05-13T11:47:53;26.20;98.90
52209;DHT22;38507;53.132;6.394;2023-05-13T11:50:27;26.30;99.20
52209;DHT22;38507;53.132;6.394;2023-05-13T11:53:01;26.40;99.20
52209;DHT22;38507;53.132;6.394;2023-05-13T11:57:54;26.60;98.80
52209;DHT22;38507;53.132;6.394;2023-05-13T12:00:30;26.80;99.40
52209;DHT22;38507;53.132;6.394;2023-05-13T12:02:57;26.80;97.60
52209;DHT22;38507;53.132;6.394;2023-05-13T12:05:23;26.70;98.80
52209;DHT22;38507;53.132;6.394;2023-05-13T12:07:49;26.70;99.00
52209;DHT22;38507;53.132;6.394;2023-05-13T12:10:16;26.60;98.80
52209;DHT22;38507;53.132;6.394;2023-05-13T12:12:44;26.60;98.90
52209;DHT22;38507;53.132;6.394;2023-05-13T12:15:14;26.60;99.00
52209;DHT22;38507;53.132;6.394;2023-05-13T12:17:41;26.50;99.00
52209;DHT22;38507;53.132;6.394;2023-05-13T12:20:08;26.60;99.40
52209;DHT22;38507;53.132;6.394;2023-05-13T12:25:45;26.50;99.20
52209;DHT22;38507;53.132;6.394;2023-05-13T12:33:24;26.50;99.90
52209;DHT22;38507;53.132;6.394;2023-05-13T12:36:13;26.40;99.90
52209;DHT22;38507;53.132;6.394;2023-05-13T12:38:40;26.40;99.80
52209;DHT22;38507;53.132;6.394;2023-05-13T12:41:17;26.40;99.90
52209;DHT22;38507;53.132;6.394;2023-05-13T12:43:43;26.20;99.90
52209;DHT22;38507;53.132;6.394;2023-05-13T12:46:08;26.40;99.90
52209;DHT22;38507;53.132;6.394;2023-05-13T12:48:34;26.30;99.50
52209;DHT22;38507;53.132;6.394;2023-05-13T12:51:00;26.40;99.20
52209;DHT22;38507;53.132;6.394;2023-05-13T12:53:25;26.40;98.70
52209;DHT22;38507;53.132;6.394;2023-05-13T12:55:51;26.30;99.50
52209;DHT22;38507;53.132;6.394;2023-05-13T12:58:17;26.40;99.60
52209;DHT22;38507;53.132;6.394;2023-05-13T13:00:43;26.30;99.70
52209;DHT22;38507;53.132;6.394;2023-05-13T13:03:08;26.40;99.60
52209;DHT22;38507;53.132;6.394;2023-05-13T13:05:34;26.30;99.60
52209;DHT22;38507;53.132;6.394;2023-05-13T13:08:00;26.30;99.70
52209;DHT22;38507;53.132;6.394;2023-05-13T13:10:27;26.50;99.90
52209;DHT22;38507;53.132;6.394;2023-05-13T13:12:53;26.50;99.50
52209;DHT22;38507;53.132;6.394;2023-05-13T13:15:18;26.30;98.50
52209;DHT22;38507;53.132;6.394;2023-05-13T13:17:44;26.30;99.60
52209;DHT22;38507;53.132;6.394;2023-05-13T13:20:10;26.30;99.50
52209;DHT22;38507;53.132;6.394;2023-05-13T13:22:36;26.30;98.90
52209;DHT22;38507;53.132;6.394;2023-05-13T13:25:06;26.30;98.90
52209;DHT22;38507;53.132;6.394;2023-05-13T13:27:32;26.40;98.80
52209;DHT22;38507;53.132;6.394;2023-05-13T13:29:59;26.30;99.10
52209;DHT22;38507;53.132;6.394;2023-05-13T13:32:24;26.20;99.00
52209;DHT22;38507;53.132;6.394;2023-05-13T13:34:50;26.20;98.20
52209;DHT22;38507;53.132;6.394;2023-05-13T13:37:16;26.10;98.40
52209;DHT22;38507;53.132;6.394;2023-05-13T13:39:41;26.20;98.70
52209;DHT22;38507;53.132;6.394;2023-05-13T13:42:07;26.10;98.10
52209;DHT22;38507;53.132;6.394;2023-05-13T13:44:33;26.10;98.20
52209;DHT22;38507;53.132;6.394;2023-05-13T13:47:01;26.20;97.50
52209;DHT22;38507;53.132;6.394;2023-05-13T13:49:26;26.30;97.60
52209;DHT22;38507;53.132;6.394;2023-05-13T13:51:52;26.20;97.10
52209;DHT22;38507;53.132;6.394;2023-05-13T13:54:18;26.00;97.60
52209;DHT22;38507;53.132;6.394;2023-05-13T13:56:44;26.20;97.60
52209;DHT22;38507;53.132;6.394;2023-05-13T13:59:09;26.30;97.30
52209;DHT22;38507;53.132;6.394;2023-05-13T14:01:35;26.30;97.30
52209;DHT22;38507;53.132;6.394;2023-05-13T14:04:16;26.30;96.20
52209;DHT22;38507;53.132;6.394;2023-05-13T14:06:44;26.30;95.80
52209;DHT22;38507;53.132;6.394;2023-05-13T14:09:10;26.20;95.50
52209;DHT22;38507;53.132;6.394;2023-05-13T14:11:36;26.10;94.90
52209;DHT22;38507;53.132;6.394;2023-05-13T14:14:02;26.10;95.50
52209;DHT22;38507;53.132;6.394;2023-05-13T14:16:28;26.30;95.60
52209;DHT22;38507;53.132;6.394;2023-05-13T14:18:54;26.40;95.30
52209;DHT22;38507;53.132;6.394;2023-05-13T14:21:19;26.30;95.00
52209;DHT22;38507;53.132;6.394;2023-05-13T14:23:45;26.40;94.80
52209;DHT22;38507;53.132;6.394;2023-05-13T14:26:10;26.20;93.30
52209;DHT22;38507;53.132;6.394;2023-05-13T14:28:39;26.10;92.90
52209;DHT22;38507;53.132;6.394;2023-05-13T14:31:05;26.20;92.70
52209;DHT22;38507;53.132;6.394;2023-05-13T14:33:30;26.30;93.20
52209;DHT22;38507;53.132;6.394;2023-05-13T14:35:56;26.20;93.60
52209;DHT22;38507;53.132;6.394;2023-05-13T14:38:22;26.20;93.40
52209;DHT22;38507;53.132;6.394;2023-05-13T14:40:47;26.20;92.60
52209;DHT22;38507;53.132;6.394;2023-05-13T14:43:13;26.10;92.70
52209;DHT22;38507;53.132;6.394;2023-05-13T14:45:38;26.10;93.10
52209;DHT22;38507;53.132;6.394;2023-05-13T14:48:04;26.00;92.80
52209;DHT22;38507;53.132;6.394;2023-05-13T14:50:30;25.90;92.90
52209;DHT22;38507;53.132;6.394;2023-05-13T14:52:56;25.90;92.40
52209;DHT22;38507;53.132;6.394;2023-05-13T14:55:22;25.90;92.20
52209;DHT22;38507;53.132;6.394;2023-05-13T14:57:47;25.70;92.60
52209;DHT22;38507;53.132;6.394;2023-05-13T15:00:14;25.90;92.90
52209;DHT22;38507;53.132;6.394;2023-05-13T15:02:40;25.80;92.70
52209;DHT22;38507;53.132;6.394;2023-05-13T15:05:06;25.80;92.40
52209;DHT22;38507;53.132;6.394;2023-05-13T15:07:32;25.90;92.80
52209;DHT22;38507;53.132;6.394;2023-05-13T15:09:57;26.00;92.80
52209;DHT22;38507;53.132;6.394;2023-05-13T15:12:23;25.80;92.80
52209;DHT22;38507;53.132;6.394;2023-05-13T15:14:56;25.70;92.70
52209;DHT22;38507;53.132;6.394;2023-05-13T15:17:22;25.80;92.50
52209;DHT22;38507;53.132;6.394;2023-05-13T15:19:47;25.80;92.80
52209;DHT22;38507;53.132;6.394;2023-05-13T15:22:13;25.80;92.60
52209;DHT22;38507;53.132;6.394;2023-05-13T15:24:38;25.80;92.50
52209;DHT22;38507;53.132;6.394;2023-05-13T15:27:05;25.90;92.60
52209;DHT22;38507;53.132;6.394;2023-05-13T15:29:31;25.80;92.60
52209;DHT22;38507;53.132;6.394;2023-05-13T15:31:57;25.70;92.00
52209;DHT22;38507;53.132;6.394;2023-05-13T15:34:23;25.60;91.80
52209;DHT22;38507;53.132;6.394;2023-05-13T15:36:49;25.60;91.90
52209;DHT22;38507;53.132;6.394;2023-05-13T15:39:14;25.60;91.50
52209;DHT22;38507;53.132;6.394;2023-05-13T15:41:43;25.40;91.60
52209;DHT22;38507;53.132;6.394;2023-05-13T15:44:09;25.50;91.60
52209;DHT22;38507;53.132;6.394;2023-05-13T15:46:34;25.30;91.70
52209;DHT22;38507;53.132;6.394;2023-05-13T15:49:00;25.20;91.80
52209;DHT22;38507;53.132;6.394;2023-05-13T15:51:27;25.30;91.80